Monday, December 5, 2016, 11:36 AM EST

KPOU, Poughkeepsie Dutchess Cty

Location: Wappingers Falls, NY, United States Lat: 41.633
Local Time: 11:36 AM EST (16:36 GMT) Lon: -73.883
Time Zone: US/Eastern Elev: 167 ft

Show me the last for .
Show Decoded

2016-12-05 10:53 METAR KPOU 051553Z VRB03KT 10SM OVC010 02/01 A2996 RMK AO2 SLP143 T00170006 =
2016-12-05 09:53 METAR KPOU 051453Z 32003KT 6SM BR OVC015 01/00 A2999 RMK AO2 SLP153 60002
                 T00060000 55003 =
2016-12-05 08:53 METAR KPOU 051353Z 17004KT 10SM OVC015 01/00 A2997 RMK AO2 SLP148 T00110000 =
2016-12-05 08:00 METAR KPOU 051300Z 12004KT 6SM BR OVC018 00/M01 A2998 RMK AO2 T00001006 =
2016-12-05 07:53 METAR KPOU 051253Z 12004KT 1 1/4SM BR BKN009 OVC014 00/M01 A2998 RMK AO2 SNE47
                 SLP152 P0002 T00001006 =
2016-12-05 07:16 METAR KPOU 051216Z 00000KT 1 1/4SM -SN BR BKN009 OVC014 M01/M01 A3000 RMK AO2
                 CIG 007V013 P0001 T10061011 =
2016-12-05 06:53 METAR KPOU 051153Z AUTO 00000KT 1 1/2SM -SN BR FEW007 OVC012 M01/M01 A3000 RMK
                 AO2 SLP156 P0003 60011 70011 T10061011 11006 21017 58008 =
2016-12-05 06:30 METAR KPOU 051130Z AUTO 00000KT 1 1/4SM -SN BR SCT008 OVC012 M01/M01 A3000 RMK
                 AO2 P0002 T10061011 =
2016-12-05 05:53 METAR KPOU 051053Z AUTO 00000KT 1 1/2SM -SN BR OVC014 M01/M02 A3001 RMK AO2
                 SLP161 P0000 T10111017 TSNO =
2016-12-05 05:51 METAR KPOU 051051Z AUTO 00000KT 1 1/2SM -SN BR OVC014 M01/M02 A3001 RMK AO2
                 P0000 TSNO =
2016-12-05 05:32 METAR KPOU 051032Z AUTO 00000KT 2SM -SN BR BKN014 OVC024 M01/M02 A3000 RMK AO2
                 P0000 T10061017 TSNO =
2016-12-05 05:04 METAR KPOU 051004Z AUTO 00000KT 2SM -SN BR FEW005 BKN019 OVC025 M02/M02 A3001
                 RMK AO2 P0000 T10171017 =
2016-12-05 04:53 METAR KPOU 050953Z AUTO 00000KT 1 1/4SM -SN BR FEW005 BKN013 OVC025 M01/M02
                 A3002 RMK AO2 SLP165 P0007 T10111022 =
2016-12-05 04:49 METAR KPOU 050949Z AUTO 00000KT 1SM -SN BR FEW005 OVC011 M02/M02 A3002 =
2016-12-05 04:21 METAR KPOU 050921Z AUTO 00000KT 1/2SM SN FZFG VV009 M02/M02 A3004 RMK AO2 P0004
                 T10171022 =
2016-12-05 03:53 METAR KPOU 050853Z AUTO 06003KT 3/4SM -SN BR VV014 M02/M03 A3004 RMK AO2 SNB32
                 PRESFR SLP170 P0001 60001 T10171033 58022 =
2016-12-05 03:46 METAR KPOU 050846Z AUTO 00000KT 1SM -SN BKN015 OVC029 M01/M04 A3005 RMK AO2
                 SNB32 P0000 T10111039 =
2016-12-05 03:38 METAR KPOU 050838Z AUTO 00000KT 2 1/2SM -SN BKN023 BKN029 OVC036 M01/M04 A3006
                 RMK AO2 SNB32 P0000 T10061044 =
2016-12-05 02:53 METAR KPOU 050753Z AUTO 00000KT 10SM BKN040 OVC100 M01/M05 A3009 RMK AO2 SLP188
                 T10061050 =
2016-12-05 01:53 METAR KPOU 050653Z AUTO 32003KT 10SM BKN100 OVC120 M01/M05 A3008 RMK AO2 SLP184
                 T10111050 =
2016-12-05 00:53 METAR KPOU 050553Z AUTO 00000KT 10SM OVC110 M01/M06 A3010 RMK AO2 SLP191
                 T10111056 11006 21022 58023 =
2016-12-04 23:53 METAR KPOU 050453Z AUTO 00000KT 10SM FEW120 M01/M06 A3012 RMK AO2 SLP198
                 T10111056 400441044 =
2016-12-04 22:53 METAR KPOU 050353Z AUTO 00000KT 10SM CLR M01/M05 A3015 RMK AO2 SLP208 T10111050
                 =
2016-12-04 21:53 METAR KPOU 050253Z AUTO 00000KT 10SM CLR M01/M06 A3017 RMK AO2 SLP216 T10111056
                 58011 =
2016-12-04 20:53 METAR KPOU 050153Z AUTO 00000KT 10SM CLR M02/M05 A3018 RMK AO2 SLP220 T10171050
                 =
2016-12-04 19:53 METAR KPOU 050053Z AUTO 00000KT 10SM CLR M01/M06 A3020 RMK AO2 SLP225 T10111056
                 =
2016-12-04 18:53 METAR KPOU 042353Z AUTO 32003KT 10SM CLR M01/M06 A3020 RMK AO2 SLP227 T10111061
                 10044 21011 50003 =
2016-12-04 17:53 METAR KPOU 042253Z AUTO 03004KT 10SM CLR 00/M06 A3021 RMK AO2 SLP228 T00001061 =
2016-12-04 16:53 METAR KPOU 042153Z AUTO 03005KT 10SM CLR 00/M06 A3020 RMK AO2 SLP225 T00001061 =
2016-12-04 15:53 METAR KPOU 042053Z AUTO 01006KT 10SM CLR 03/M06 A3019 RMK AO2 SLP223 T00281061
                 55005 =
2016-12-04 14:53 METAR KPOU 041953Z 01008KT 10SM CLR 04/M06 A3019 RMK AO2 SLP222 T00391056 =
2016-12-04 13:53 METAR KPOU 041853Z 36006KT 10SM CLR 04/M06 A3020 RMK AO2 SLP223 T00441056 =
2016-12-04 12:53 METAR KPOU 041753Z 01008KT 10SM CLR 04/M06 A3021 RMK AO2 SLP228 T00441056 10044
                 21044 56014 =
2016-12-04 11:53 METAR KPOU 041653Z VRB05KT 10SM CLR 04/M06 A3022 RMK AO2 SLP232 T00391056 =

Support USWX by starting your Amazon purchase here.